createdAt,value
2019-06-20T00:00:31.341Z,99609.18
2019-06-20T00:03:00.239Z,99615.98
2019-06-20T00:05:29.027Z,99614.34
2019-06-20T00:07:57.700Z,99618.94
2019-06-20T00:10:26.523Z,99624.34
2019-06-20T00:13:00.565Z,99623.84
2019-06-20T00:15:25.700Z,99629.21
2019-06-20T00:17:54.387Z,99640.28
2019-06-20T00:20:23.135Z,99652.61
2019-06-20T00:22:51.849Z,99645.41
2019-06-20T00:25:20.506Z,99642.18
2019-06-20T00:27:49.169Z,99652.63
2019-06-20T00:30:18.036Z,99654.41
2019-06-20T00:32:46.774Z,99661.11
2019-06-20T00:35:15.615Z,99652.22
2019-06-20T00:37:44.280Z,99648.55
2019-06-20T00:40:13.235Z,99656.36
2019-06-20T00:42:41.930Z,99646.37
2019-06-20T00:45:10.926Z,99650.87
2019-06-20T00:47:39.628Z,99666.45
2019-06-20T00:50:08.593Z,99653.91
2019-06-20T00:52:37.258Z,99647.77
2019-06-20T00:55:06.593Z,99637.83
2019-06-20T00:57:35.335Z,99635.19
2019-06-20T01:00:05.101Z,99634.64
2019-06-20T01:02:33.789Z,99631.95
2019-06-20T01:05:02.465Z,99632.17
2019-06-20T01:07:31.230Z,99634.80
2019-06-20T01:09:59.893Z,99632.67
2019-06-20T01:12:29.313Z,99634.28
2019-06-20T01:14:58.308Z,99632.95
2019-06-20T01:17:26.977Z,99633.50
2019-06-20T01:19:58.218Z,99632.94
2019-06-20T01:22:26.452Z,99633.97
2019-06-20T01:24:55.227Z,99642.02
2019-06-20T01:27:23.912Z,99647.04
2019-06-20T01:29:52.629Z,99651.07
2019-06-20T01:32:21.376Z,99657.78
2019-06-20T01:34:50.125Z,99648.95
2019-06-20T01:37:18.814Z,99653.84
2019-06-20T01:39:47.863Z,99656.30
2019-06-20T01:42:16.945Z,99658.70
2019-06-20T01:44:45.607Z,99665.95
2019-06-20T01:47:14.268Z,99662.77
2019-06-20T01:49:42.972Z,99656.08
2019-06-20T01:52:11.643Z,99658.75
2019-06-20T01:54:40.330Z,99654.95
2019-06-20T01:57:09.339Z,99656.02
2019-06-20T01:59:38.313Z,99659.77
2019-06-20T02:02:07.163Z,99664.06
2019-06-20T02:04:35.843Z,99658.98
2019-06-20T02:07:04.658Z,99657.64
2019-06-20T02:09:33.362Z,99656.03
2019-06-20T02:12:02.128Z,99658.98
2019-06-20T02:14:30.873Z,99664.34
2019-06-20T02:16:59.544Z,99665.42
2019-06-20T02:19:28.225Z,99661.89
2019-06-20T02:21:57.003Z,99654.96
2019-06-20T02:24:25.687Z,99652.58
2019-06-20T02:26:54.381Z,99654.52
2019-06-20T02:29:23.093Z,99649.44
2019-06-20T02:31:51.761Z,99651.33
2019-06-20T02:34:20.790Z,99651.09
2019-06-20T02:36:49.743Z,99643.05
2019-06-20T02:39:18.432Z,99640.66
2019-06-20T02:41:47.122Z,99640.38
2019-06-20T02:44:29.006Z,99648.42
2019-06-20T02:46:46.329Z,99650.56
2019-06-20T02:49:15.020Z,99647.86
2019-06-20T02:51:44.254Z,99653.22
2019-06-20T02:54:12.947Z,99656.73
2019-06-20T02:56:41.643Z,99659.64
2019-06-20T02:59:10.340Z,99659.13
2019-06-20T03:01:39.023Z,99667.41
2019-06-20T03:04:07.712Z,99673.04
2019-06-20T03:06:36.511Z,99675.48
2019-06-20T03:09:07.051Z,99680.80
2019-06-20T03:11:35.719Z,99680.84
2019-06-20T03:14:04.706Z,99685.91
2019-06-20T03:16:33.412Z,99692.06
2019-06-20T03:19:02.744Z,99693.44
2019-06-20T03:21:31.445Z,99698.77
2019-06-20T03:24:00.145Z,99698.50
2019-06-20T03:26:28.829Z,99708.70
2019-06-20T03:28:57.507Z,99706.02
2019-06-20T03:31:26.200Z,99702.79
2019-06-20T03:33:54.924Z,99704.65
2019-06-20T03:36:23.613Z,99702.24
2019-06-20T03:38:52.298Z,99704.13
2019-06-20T03:41:23.472Z,99708.42
2019-06-20T03:43:52.306Z,99708.42
2019-06-20T03:46:21.699Z,99705.75
2019-06-20T03:48:50.392Z,99710.83
2019-06-20T03:51:19.256Z,99716.19
2019-06-20T03:53:48.201Z,99720.50
2019-06-20T03:56:20.874Z,99724.50
2019-06-20T03:58:49.633Z,99731.45
2019-06-20T04:01:18.334Z,99729.84
2019-06-20T04:03:46.998Z,99734.37
2019-06-20T04:06:15.679Z,99729.80
2019-06-20T04:08:44.480Z,99724.95
2019-06-20T04:11:13.139Z,99734.52
2019-06-20T04:13:42.063Z,99737.13
2019-06-20T04:16:10.755Z,99734.46
2019-06-20T04:18:39.428Z,99733.05
2019-06-20T04:21:08.150Z,99736.77
2019-06-20T04:23:36.813Z,99737.74
2019-06-20T04:26:05.511Z,99737.90
2019-06-20T04:28:34.222Z,99738.97
2019-06-20T04:31:02.869Z,99737.03
2019-06-20T04:33:31.561Z,99744.20
2019-06-20T04:36:00.235Z,99744.06
2019-06-20T04:38:28.901Z,99746.60
2019-06-20T04:40:57.599Z,99731.64
2019-06-20T04:43:26.280Z,99738.20
2019-06-20T04:46:06.376Z,99741.03
2019-06-20T04:48:35.077Z,99741.61
2019-06-20T04:51:03.819Z,99750.22
2019-06-20T04:53:32.832Z,99750.36
2019-06-20T04:56:05.426Z,99749.39
2019-06-20T04:58:40.406Z,99752.97
2019-06-20T05:01:09.064Z,99747.75
2019-06-20T05:03:37.845Z,99757.51
2019-06-20T05:06:08.703Z,99764.91
2019-06-20T05:08:37.918Z,99764.50
2019-06-20T05:11:06.898Z,99768.91
2019-06-20T05:13:35.898Z,99762.70
2019-06-20T05:16:04.722Z,99769.87
2019-06-20T05:18:33.404Z,99766.18
2019-06-20T05:21:02.155Z,99778.70
2019-06-20T05:23:30.866Z,99769.20
2019-06-20T05:25:59.535Z,99768.88
2019-06-20T05:28:28.190Z,99771.90
2019-06-20T05:30:56.892Z,99777.22
2019-06-20T05:33:25.556Z,99774.93
2019-06-20T05:35:54.223Z,99785.12
2019-06-20T05:38:22.929Z,99783.50
2019-06-20T05:40:54.303Z,99781.91
2019-06-20T05:43:23.374Z,99779.94
2019-06-20T05:46:08.030Z,99779.59
2019-06-20T05:48:22.524Z,99788.95
2019-06-20T05:50:51.232Z,99788.09
2019-06-20T05:53:19.916Z,99794.87
2019-06-20T05:55:48.599Z,99794.32
2019-06-20T05:58:17.343Z,99799.16
2019-06-20T06:00:46.024Z,99800.20
2019-06-20T06:03:14.701Z,99798.95
2019-06-20T06:05:43.610Z,99796.32
2019-06-20T06:08:12.281Z,99791.62
2019-06-20T06:10:41.331Z,99802.45
2019-06-20T06:13:10.012Z,99790.12
2019-06-20T06:15:38.783Z,99799.35
2019-06-20T06:18:14.122Z,99795.91
2019-06-20T06:20:44.873Z,99803.66
2019-06-20T06:23:13.680Z,99796.82
2019-06-20T06:25:44.050Z,99793.03
2019-06-20T06:28:12.873Z,99792.16
2019-06-20T06:30:41.546Z,99794.80
2019-06-20T06:33:10.255Z,99793.06
2019-06-20T06:35:39.019Z,99787.94
2019-06-20T06:38:07.698Z,99791.55
2019-06-20T06:40:36.456Z,99810.05
2019-06-20T06:43:05.544Z,99801.25
2019-06-20T06:45:34.561Z,99801.94
2019-06-20T06:48:04.914Z,99802.43
2019-06-20T06:50:33.812Z,99808.55
2019-06-20T06:53:02.876Z,99808.25
2019-06-20T06:55:32.666Z,99810.13
2019-06-20T06:58:01.374Z,99806.27
2019-06-20T07:00:30.044Z,99808.05
2019-06-20T07:02:58.711Z,99821.77
2019-06-20T07:05:27.532Z,99821.77
2019-06-20T07:07:56.198Z,99811.45
2019-06-20T07:10:25.715Z,99820.24
2019-06-20T07:12:54.386Z,99823.21
2019-06-20T07:15:24.624Z,99823.69
2019-06-20T07:17:53.406Z,99831.55
2019-06-20T07:20:22.602Z,99829.01
2019-06-20T07:22:52.008Z,99829.11
2019-06-20T07:25:21.596Z,99831.18
2019-06-20T07:27:52.459Z,99834.05
2019-06-20T07:30:23.178Z,99836.30
2019-06-20T07:32:54.665Z,99842.14
2019-06-20T07:35:24.072Z,99841.46
2019-06-20T07:37:53.041Z,99849.59
2019-06-20T07:40:22.462Z,99852.90
2019-06-20T07:42:51.541Z,99852.41
2019-06-20T07:45:27.463Z,99853.36
2019-06-20T07:47:56.454Z,99851.44
2019-06-20T07:50:25.472Z,99855.11
2019-06-20T07:53:02.130Z,99856.13
2019-06-20T07:55:25.719Z,99856.58
2019-06-20T07:57:55.321Z,99852.42
2019-06-20T08:00:24.744Z,99856.25
2019-06-20T08:02:53.480Z,99868.84
2019-06-20T08:05:22.260Z,99871.13
2019-06-20T08:07:51.072Z,99874.75
2019-06-20T08:10:20.433Z,99865.83
2019-06-20T08:12:49.126Z,99871.66
2019-06-20T08:15:18.566Z,99861.97
2019-06-20T08:17:47.250Z,99866.53
2019-06-20T08:20:16.391Z,99861.92
2019-06-20T08:22:45.091Z,99860.36
2019-06-20T08:25:15.508Z,99861.00
2019-06-20T08:27:51.970Z,99863.12
2019-06-20T08:30:23.878Z,99857.34
2019-06-20T08:32:52.852Z,99862.94
2019-06-20T08:35:24.302Z,99871.75
2019-06-20T08:37:54.322Z,99870.20
2019-06-20T08:40:26.045Z,99869.83
2019-06-20T08:42:57.123Z,99870.95
2019-06-20T08:45:27.336Z,99869.23
2019-06-20T08:47:56.988Z,99872.39
2019-06-20T08:50:26.919Z,99868.66
2019-06-20T08:52:59.756Z,99864.95
2019-06-20T08:55:29.394Z,99869.82
2019-06-20T08:58:01.632Z,99877.80
2019-06-20T09:00:35.385Z,99896.27
2019-06-20T09:03:05.106Z,99883.64
2019-06-20T09:05:35.306Z,99887.89
2019-06-20T09:08:04.790Z,99881.40
2019-06-20T09:10:41.264Z,99876.02
2019-06-20T09:13:11.898Z,99880.98
2019-06-20T09:15:40.719Z,99870.33
2019-06-20T09:18:09.565Z,99873.45
2019-06-20T09:20:38.406Z,99879.32
2019-06-20T09:23:07.517Z,99874.80
2019-06-20T09:25:37.761Z,99864.06
2019-06-20T09:28:07.534Z,99863.16
2019-06-20T09:30:37.762Z,99867.98
2019-06-20T09:33:07.010Z,99866.42
2019-06-20T09:35:35.839Z,99876.72
2019-06-20T09:38:05.314Z,99882.34
2019-06-20T09:40:34.041Z,99882.02
2019-06-20T09:43:10.427Z,99883.98
2019-06-20T09:45:39.251Z,99896.66
2019-06-20T09:48:07.928Z,99896.30
2019-06-20T09:50:37.907Z,99903.63
2019-06-20T09:53:06.635Z,99907.03
2019-06-20T09:55:35.696Z,99899.44
2019-06-20T09:58:06.337Z,99906.61
2019-06-20T10:00:35.561Z,99905.12
2019-06-20T10:03:04.725Z,99909.59
2019-06-20T10:05:33.853Z,99911.72
2019-06-20T10:08:02.595Z,99893.98
2019-06-20T10:10:33.193Z,99897.92
2019-06-20T10:13:02.827Z,99903.24
2019-06-20T10:15:32.769Z,99905.48
2019-06-20T10:18:04.552Z,99903.73
2019-06-20T10:20:34.661Z,99899.61
2019-06-20T10:23:03.299Z,99901.83
2019-06-20T10:25:32.073Z,99898.62
2019-06-20T10:28:01.025Z,99904.61
2019-06-20T10:30:30.169Z,99907.09
2019-06-20T10:32:58.852Z,99905.94
2019-06-20T10:35:27.896Z,99909.55
2019-06-20T10:37:57.331Z,99904.35
2019-06-20T10:40:26.448Z,99909.52
2019-06-20T10:42:56.895Z,99908.28
2019-06-20T10:45:26.728Z,99899.58
2019-06-20T10:47:55.554Z,99897.09
2019-06-20T10:50:26.585Z,99897.11
2019-06-20T10:52:55.325Z,99905.09
2019-06-20T10:55:24.123Z,99907.70
2019-06-20T10:57:52.927Z,99908.16
2019-06-20T11:00:30.944Z,99905.89
2019-06-20T11:02:52.968Z,99923.52
2019-06-20T11:05:21.783Z,99921.30
2019-06-20T11:07:50.486Z,99928.12
2019-06-20T11:10:19.792Z,99930.98
2019-06-20T11:12:54.904Z,99936.25
2019-06-20T11:15:20.971Z,99948.17
2019-06-20T11:17:49.670Z,99935.30
2019-06-20T11:20:19.105Z,99934.63
2019-06-20T11:22:48.108Z,99940.14
2019-06-20T11:25:19.686Z,99943.06
2019-06-20T11:27:48.733Z,99939.81
2019-06-20T11:30:18.287Z,99942.23
2019-06-20T11:32:48.826Z,99950.72
2019-06-20T11:35:17.996Z,99933.27
2019-06-20T11:37:47.303Z,99930.63
2019-06-20T11:40:16.686Z,99929.38
2019-06-20T11:42:46.857Z,99926.55
2019-06-20T11:45:17.739Z,99934.30
2019-06-20T11:47:47.328Z,99938.86
2019-06-20T11:50:17.383Z,99934.51
2019-06-20T11:52:46.150Z,99925.23
2019-06-20T11:55:15.071Z,99926.77
2019-06-20T11:57:43.961Z,99916.75
2019-06-20T12:00:13.781Z,99920.28
2019-06-20T12:02:44.086Z,99925.46
2019-06-20T12:05:14.389Z,99916.08
2019-06-20T12:07:43.631Z,99925.25
2019-06-20T12:10:14.203Z,99923.36
2019-06-20T12:12:42.914Z,99912.56
2019-06-20T12:15:14.338Z,99921.36
2019-06-20T12:17:43.776Z,99927.85
2019-06-20T12:20:14.394Z,99924.08
2019-06-20T12:22:43.602Z,99914.84
2019-06-20T12:25:15.465Z,99916.00
2019-06-20T12:27:45.602Z,99921.23
2019-06-20T12:30:15.059Z,99924.70
2019-06-20T12:32:44.745Z,99918.15
2019-06-20T12:35:13.971Z,99924.23
2019-06-20T12:37:42.932Z,99928.71
2019-06-20T12:40:12.740Z,99927.41
2019-06-20T12:42:43.121Z,99919.41
2019-06-20T12:45:13.966Z,99908.69
2019-06-20T12:47:43.783Z,99905.48
2019-06-20T12:50:14.507Z,99912.83
2019-06-20T12:52:45.441Z,99904.11
2019-06-20T12:55:14.400Z,99907.53
2019-06-20T12:57:44.221Z,99900.73
2019-06-20T13:00:14.022Z,99898.48
2019-06-20T13:02:43.799Z,99892.91
2019-06-20T13:05:13.759Z,99888.01
2019-06-20T13:07:43.747Z,99890.48
2019-06-20T13:10:12.961Z,99884.22
2019-06-20T13:12:42.760Z,99881.45
2019-06-20T13:15:13.000Z,99879.83
2019-06-20T13:17:43.143Z,99871.84
2019-06-20T13:20:12.525Z,99877.02
2019-06-20T13:22:42.712Z,99864.75
2019-06-20T13:25:12.799Z,99878.33
2019-06-20T13:27:41.556Z,99876.27
2019-06-20T13:30:10.995Z,99875.95
2019-06-20T13:32:41.673Z,99874.20
2019-06-20T13:35:11.148Z,99877.59
2019-06-20T13:37:41.618Z,99881.98
2019-06-20T13:40:11.672Z,99885.67
2019-06-20T13:42:42.075Z,99872.11
2019-06-20T13:45:23.639Z,99875.50
2019-06-20T13:47:52.588Z,99885.72
2019-06-20T13:50:21.818Z,99880.48
2019-06-20T13:52:51.250Z,99887.41
2019-06-20T13:55:21.496Z,99886.76
2019-06-20T13:57:50.344Z,99884.42
2019-06-20T14:00:20.354Z,99896.71
2019-06-20T14:02:51.142Z,99882.70
2019-06-20T14:05:19.824Z,99879.67
2019-06-20T14:07:51.909Z,99878.67
2019-06-20T14:10:19.046Z,99886.33
2019-06-20T14:12:48.787Z,99889.13
2019-06-20T14:15:18.267Z,99886.56
2019-06-20T14:17:47.474Z,99883.34
2019-06-20T14:20:17.015Z,99887.66
2019-06-20T14:22:45.706Z,99881.08
2019-06-20T14:25:15.126Z,99875.26
2019-06-20T14:27:45.679Z,99887.18
2019-06-20T14:30:14.518Z,99886.64
2019-06-20T14:32:43.513Z,99882.13
2019-06-20T14:35:13.516Z,99873.53
2019-06-20T14:37:43.928Z,99878.19
2019-06-20T14:40:13.203Z,99879.91
2019-06-20T14:42:42.786Z,99884.77
2019-06-20T14:45:14.107Z,99878.75
2019-06-20T14:47:42.854Z,99881.69
2019-06-20T14:50:14.605Z,99885.45
2019-06-20T14:52:46.074Z,99890.11
2019-06-20T14:55:16.883Z,99886.91
2019-06-20T14:57:46.959Z,99884.34
2019-06-20T15:00:17.334Z,99878.45
2019-06-20T15:02:47.645Z,99885.34
2019-06-20T15:05:17.490Z,99885.69
2019-06-20T15:07:47.276Z,99876.48
2019-06-20T15:10:17.417Z,99880.95
2019-06-20T15:12:47.848Z,99877.80
2019-06-20T15:15:18.116Z,99876.57
2019-06-20T15:17:49.665Z,99876.02
2019-06-20T15:20:17.615Z,99881.47
2019-06-20T15:22:48.920Z,99887.08
2019-06-20T15:25:18.787Z,99883.12
2019-06-20T15:27:50.253Z,99876.73
2019-06-20T15:30:19.427Z,99876.24
2019-06-20T15:33:01.009Z,99874.75
2019-06-20T15:35:19.962Z,99873.34
2019-06-20T15:37:51.496Z,99874.08
2019-06-20T15:40:22.184Z,99874.73
2019-06-20T15:42:53.465Z,99872.48
2019-06-20T15:45:26.144Z,99878.08
2019-06-20T15:47:55.308Z,99874.42
2019-06-20T15:50:26.615Z,99869.48
2019-06-20T15:52:55.274Z,99871.81
2019-06-20T15:55:24.270Z,99867.84
2019-06-20T15:57:54.231Z,99866.94
2019-06-20T16:00:23.307Z,99861.30
2019-06-20T16:02:51.964Z,99867.02
2019-06-20T16:05:20.798Z,99869.09
2019-06-20T16:07:49.481Z,99878.51
2019-06-20T16:10:18.384Z,99867.50
2019-06-20T16:12:47.054Z,99880.09
2019-06-20T16:15:22.073Z,99874.13
2019-06-20T16:17:50.803Z,99879.77
2019-06-20T16:20:20.732Z,99890.30
2019-06-20T16:22:49.481Z,99889.63
2019-06-20T16:25:18.146Z,99887.52
2019-06-20T16:27:46.824Z,99886.45
2019-06-20T16:30:17.506Z,99894.29
2019-06-20T16:32:46.193Z,99890.64
2019-06-20T16:35:16.565Z,99897.27
2019-06-20T16:37:45.241Z,99893.64
2019-06-20T16:40:14.738Z,99896.94
2019-06-20T16:42:43.390Z,99901.39
2019-06-20T16:45:14.044Z,99900.59
2019-06-20T16:47:42.722Z,99905.53
2019-06-20T16:50:12.640Z,99903.76
2019-06-20T16:52:41.350Z,99906.62
2019-06-20T16:55:10.175Z,99903.89
2019-06-20T16:57:38.822Z,99909.59
2019-06-20T17:00:08.802Z,99918.05
2019-06-20T17:02:37.501Z,99913.27
2019-06-20T17:05:06.612Z,99922.26
2019-06-20T17:07:35.358Z,99921.21
2019-06-20T17:10:04.863Z,99926.39
2019-06-20T17:12:33.527Z,99934.30
2019-06-20T17:15:02.180Z,99936.67
2019-06-20T17:17:30.929Z,99948.92
2019-06-20T17:19:59.549Z,99950.44
2019-06-20T17:22:28.225Z,99960.68
2019-06-20T17:24:56.965Z,99953.01
2019-06-20T17:27:25.955Z,99961.92
2019-06-20T17:29:54.645Z,99958.70
2019-06-20T17:32:23.367Z,99963.33
2019-06-20T17:34:52.050Z,99965.61
2019-06-20T17:37:20.723Z,99970.52
2019-06-20T17:39:49.429Z,99976.45
2019-06-20T17:42:18.063Z,99973.92
2019-06-20T17:44:46.757Z,99979.45
2019-06-20T17:47:15.740Z,99974.14
2019-06-20T17:49:44.802Z,99975.58
2019-06-20T17:52:13.508Z,99974.66
2019-06-20T17:54:42.197Z,99970.72
2019-06-20T17:57:10.892Z,99974.47
2019-06-20T17:59:39.608Z,99980.71
2019-06-20T18:02:08.867Z,99983.38
2019-06-20T18:04:37.935Z,99994.48
2019-06-20T18:07:07.677Z,99992.34
2019-06-20T18:09:36.389Z,99987.47
2019-06-20T18:12:05.456Z,99996.23
2019-06-20T18:14:35.052Z,99994.99
2019-06-20T18:17:04.813Z,99990.98
2019-06-20T18:19:34.215Z,99998.38
2019-06-20T18:22:04.346Z,99994.25
2019-06-20T18:24:33.034Z,99998.41
2019-06-20T18:27:02.413Z,99995.47
2019-06-20T18:29:31.410Z,99986.98
2019-06-20T18:32:00.639Z,99991.20
2019-06-20T18:34:30.587Z,99993.05
2019-06-20T18:36:59.555Z,99992.36
2019-06-20T18:39:28.518Z,99999.45
2019-06-20T18:41:57.828Z,100002.72
2019-06-20T18:44:27.977Z,100004.31
2019-06-20T18:46:56.664Z,100001.14
2019-06-20T18:49:25.741Z,100007.17
2019-06-20T18:51:54.500Z,100016.98
2019-06-20T18:54:23.561Z,100018.14
2019-06-20T18:56:52.579Z,100023.73
2019-06-20T18:59:21.752Z,100023.44
2019-06-20T19:01:50.769Z,100031.20
2019-06-20T19:04:19.541Z,100031.31
2019-06-20T19:06:49.086Z,100041.15
2019-06-20T19:09:17.794Z,100043.33
2019-06-20T19:12:11.960Z,100040.42
2019-06-20T19:14:41.476Z,100044.23
2019-06-20T19:17:18.501Z,100052.95
2019-06-20T19:19:49.477Z,100063.25
2019-06-20T19:22:21.368Z,100069.23
2019-06-20T19:24:53.734Z,100069.69
2019-06-20T19:27:23.036Z,100074.91
2019-06-20T19:29:51.701Z,100077.95
2019-06-20T19:32:20.414Z,100086.83
2019-06-20T19:35:01.497Z,100095.41
2019-06-20T19:37:21.589Z,100104.13
2019-06-20T19:39:50.263Z,100104.45
2019-06-20T19:42:20.633Z,100104.08
2019-06-20T19:44:49.722Z,100107.08
2019-06-20T19:47:19.090Z,100114.19
2019-06-20T19:49:47.791Z,100119.84
2019-06-20T19:52:16.506Z,100125.88
2019-06-20T19:54:45.509Z,100126.93
2019-06-20T19:57:14.623Z,100125.69
2019-06-20T19:59:46.114Z,100144.34
2019-06-20T20:02:14.095Z,100133.08
2019-06-20T20:04:43.572Z,100140.92
2019-06-20T20:07:12.760Z,100147.77
2019-06-20T20:09:44.632Z,100144.59
2019-06-20T20:12:13.679Z,100147.66
2019-06-20T20:14:42.385Z,100144.21
2019-06-20T20:17:11.067Z,100155.00
2019-06-20T20:19:39.779Z,100149.43
2019-06-20T20:22:08.427Z,100150.81
2019-06-20T20:24:37.118Z,100160.59
2019-06-20T20:27:05.949Z,100157.98
2019-06-20T20:29:34.591Z,100159.95
2019-06-20T20:32:03.263Z,100164.34
2019-06-20T20:34:31.945Z,100174.06
2019-06-20T20:37:00.623Z,100175.98
2019-06-20T20:39:29.372Z,100174.66
2019-06-20T20:41:58.109Z,100180.55
2019-06-20T20:44:26.770Z,100187.27
2019-06-20T20:46:55.480Z,100189.95
2019-06-20T20:49:24.541Z,100188.33
2019-06-20T20:51:53.271Z,100196.66
2019-06-20T20:54:22.029Z,100195.59
2019-06-20T20:56:50.685Z,100196.68
2019-06-20T20:59:19.443Z,100197.25
2019-06-20T21:01:49.362Z,100204.82
2019-06-20T21:04:18.407Z,100206.16
2019-06-20T21:06:47.870Z,100204.53
2019-06-20T21:09:16.708Z,100201.05
2019-06-20T21:11:45.371Z,100200.55
2019-06-20T21:14:14.057Z,100199.75
2019-06-20T21:16:42.740Z,100200.28
2019-06-20T21:19:11.439Z,100206.48
2019-06-20T21:21:40.295Z,100204.08
2019-06-20T21:24:09.020Z,100210.55
2019-06-20T21:26:49.484Z,100214.34
2019-06-20T21:29:11.694Z,100226.22
2019-06-20T21:31:41.933Z,100226.22
2019-06-20T21:34:10.643Z,100222.45
2019-06-20T21:36:41.986Z,100221.62
2019-06-20T21:39:12.175Z,100220.00
2019-06-20T21:41:41.209Z,100228.62
2019-06-20T21:44:11.010Z,100227.28
2019-06-20T21:46:41.169Z,100219.45
2019-06-20T21:49:10.344Z,100217.59
2019-06-20T21:51:40.155Z,100222.18
2019-06-20T21:54:09.246Z,100228.91
2019-06-20T21:56:37.989Z,100236.20
2019-06-20T21:59:08.370Z,100241.05
2019-06-20T22:01:37.714Z,100236.20
2019-06-20T22:04:06.448Z,100248.55
2019-06-20T22:06:36.147Z,100247.20
2019-06-20T22:09:08.239Z,100254.19
2019-06-20T22:11:38.265Z,100246.12
2019-06-20T22:14:09.008Z,100248.55
2019-06-20T22:16:38.915Z,100247.75
2019-06-20T22:19:10.334Z,100251.25
2019-06-20T22:21:43.940Z,100245.84
2019-06-20T22:24:15.109Z,100246.89
2019-06-20T22:26:44.320Z,100245.51
2019-06-20T22:29:13.474Z,100242.84
2019-06-20T22:31:44.744Z,100254.86
2019-06-20T22:34:14.603Z,100257.23
2019-06-20T22:36:43.301Z,100252.24
2019-06-20T22:39:12.880Z,100259.89
2019-06-20T22:41:42.841Z,100258.20
2019-06-20T22:44:12.463Z,100259.18
2019-06-20T22:46:44.123Z,100264.83
2019-06-20T22:49:12.807Z,100258.89
2019-06-20T22:51:42.439Z,100255.89
2019-06-20T22:54:12.653Z,100268.95
2019-06-20T22:56:41.334Z,100274.80
2019-06-20T22:59:10.343Z,100269.25
2019-06-20T23:01:39.307Z,100275.30
2019-06-20T23:04:07.993Z,100284.05
2019-06-20T23:06:38.131Z,100285.02
2019-06-20T23:09:08.292Z,100295.28
2019-06-20T23:11:38.903Z,100298.25
2019-06-20T23:14:08.216Z,100300.09
2019-06-20T23:16:36.888Z,100304.19
2019-06-20T23:19:06.325Z,100303.53
2019-06-20T23:21:35.329Z,100305.74
2019-06-20T23:24:04.583Z,100309.17
2019-06-20T23:26:33.761Z,100308.25
2019-06-20T23:29:20.353Z,100307.29
2019-06-20T23:31:49.035Z,100304.77
2019-06-20T23:34:17.992Z,100303.53
2019-06-20T23:36:49.578Z,100305.63
2019-06-20T23:39:19.948Z,100318.03
2019-06-20T23:41:48.934Z,100321.14
2019-06-20T23:44:19.171Z,100319.48
2019-06-20T23:46:49.085Z,100320.53
2019-06-20T23:49:17.793Z,100327.83
2019-06-20T23:51:56.280Z,100321.33
2019-06-20T23:54:24.965Z,100328.27
2019-06-20T23:56:53.663Z,100320.06
2019-06-20T23:59:23.264Z,100320.06
